Fortville, Indiana
Current Conditions -  °F | °C
As of 2:15 AM on Saturday 29 Nov 2014 (Local Time) from KMQJ Reporting Station
Clear Clear  
Wind Chill: 24°   Ceiling: Unl
Heat Index: 32°   Visibility: 10mi
Dew Point: 16°   Wind: 10mph
Humidity: 51%   Direction: 170°S
Pressure: 29.99"   Gusts: NA
Location:  39.93°N, 85.85°W
Report Text: KMQJ 290715Z AUTO 17009KT 10SM CLR 00/M09 A2999 RMK AO1
Loading
Personal Weather Stations






























Interactive Weather Map New forecast layout! Learn more

10-Day Weather Forecast

Advertisements
Track Severe Weather on mobile